createdAt,value
2017-11-17T00:00:11.850Z,99292.77
2017-11-17T00:05:16.964Z,99299.01
2017-11-17T00:10:23.700Z,99300.14
2017-11-17T00:12:55.421Z,99299.30
2017-11-17T00:18:00.292Z,99300.63
2017-11-17T00:20:34.490Z,99298.96
2017-11-17T00:23:06.179Z,99303.16
2017-11-17T00:25:36.920Z,99303.33
2017-11-17T00:30:45.331Z,99314.26
2017-11-17T00:33:17.031Z,99312.23
2017-11-17T00:35:48.001Z,99302.75
2017-11-17T00:46:02.162Z,99307.70
2017-11-17T00:48:32.523Z,99312.72
2017-11-17T00:51:04.639Z,99309.23
2017-11-17T00:56:15.156Z,99313.73
2017-11-17T01:03:53.687Z,99311.89
2017-11-17T01:06:25.937Z,99310.82
2017-11-17T01:11:38.536Z,99315.89
2017-11-17T01:14:12.204Z,99318.64
2017-11-17T01:16:44.040Z,99312.11
2017-11-17T01:19:14.797Z,99312.90
2017-11-17T01:21:45.867Z,99317.67
2017-11-17T01:24:16.043Z,99315.30
2017-11-17T01:26:47.564Z,99313.69
2017-11-17T01:29:19.548Z,99311.86
2017-11-17T01:31:51.712Z,99313.36
2017-11-17T01:34:22.270Z,99314.64
2017-11-17T01:36:52.141Z,99308.86
2017-11-17T01:39:23.971Z,99314.98
2017-11-17T01:41:56.073Z,99315.84
2017-11-17T01:44:26.559Z,99311.11
2017-11-17T01:46:57.096Z,99313.23
2017-11-17T01:49:29.039Z,99310.78
2017-11-17T01:54:34.166Z,99313.06
2017-11-17T01:57:03.992Z,99311.66
2017-11-17T01:59:35.356Z,99312.98
2017-11-17T02:02:05.723Z,99310.06
2017-11-17T02:04:38.980Z,99316.02
2017-11-17T02:07:08.892Z,99309.36
2017-11-17T02:09:39.035Z,99316.11
2017-11-17T02:17:25.511Z,99332.95
2017-11-17T02:19:55.975Z,99327.50
2017-11-17T02:25:03.604Z,99329.87
2017-11-17T02:27:35.834Z,99324.09
2017-11-17T02:30:09.653Z,99324.95
2017-11-17T02:32:47.466Z,99330.94
2017-11-17T02:35:22.701Z,99331.35
2017-11-17T02:37:53.122Z,99328.23
2017-11-17T02:40:24.357Z,99335.44
2017-11-17T02:45:35.056Z,99325.42
2017-11-17T03:08:40.693Z,99312.31
2017-11-17T03:11:11.740Z,99312.40
2017-11-17T03:16:23.586Z,99313.36
2017-11-17T03:18:54.449Z,99312.73
2017-11-17T03:21:27.255Z,99314.77
2017-11-17T03:24:00.248Z,99316.30
2017-11-17T03:26:31.662Z,99324.88
2017-11-17T03:32:11.642Z,99311.98
2017-11-17T03:34:41.911Z,99313.27
2017-11-17T03:37:12.133Z,99311.56
2017-11-17T03:39:44.341Z,99312.43
2017-11-17T03:44:49.548Z,99308.31
2017-11-17T03:47:20.649Z,99309.11
2017-11-17T03:52:25.323Z,99314.47
2017-11-17T03:54:56.472Z,99315.02
2017-11-17T03:57:27.286Z,99314.14
2017-11-17T04:02:32.803Z,99311.84
2017-11-17T04:07:38.761Z,99314.84
2017-11-17T04:12:44.565Z,99318.05
2017-11-17T04:15:14.779Z,99318.77
2017-11-17T04:17:49.688Z,99321.42
2017-11-17T04:25:36.755Z,99321.30
2017-11-17T04:28:10.772Z,99324.29
2017-11-17T04:30:40.789Z,99327.20
2017-11-17T04:33:11.077Z,99334.65
2017-11-17T04:35:41.051Z,99337.64
2017-11-17T04:38:16.548Z,99344.58
2017-11-17T04:45:59.163Z,99347.58
2017-11-17T04:48:30.796Z,99344.63
2017-11-17T04:58:56.433Z,99347.83
2017-11-17T05:06:48.727Z,99358.11
2017-11-17T05:26:33.681Z,99371.95
2017-11-17T05:29:04.315Z,99369.63
2017-11-17T05:31:38.946Z,99371.70
2017-11-17T05:36:49.229Z,99376.40
2017-11-17T05:39:20.810Z,99380.34
2017-11-17T05:45:38.535Z,99385.00
2017-11-17T05:48:10.284Z,99384.70
2017-11-17T05:50:52.921Z,99384.91
2017-11-17T05:53:28.110Z,99388.31
2017-11-17T05:55:58.881Z,99389.19
2017-11-17T05:58:33.564Z,99389.29
2017-11-17T06:01:31.474Z,99388.83
2017-11-17T06:04:08.454Z,99396.19
2017-11-17T06:06:43.315Z,99388.67
2017-11-17T06:09:17.749Z,99384.88
2017-11-17T06:19:55.842Z,99391.13
2017-11-17T06:30:11.896Z,99404.05
2017-11-17T06:35:25.178Z,99404.27
2017-11-17T06:37:56.028Z,99404.07
2017-11-17T06:40:26.166Z,99405.82
2017-11-17T06:42:59.691Z,99408.32
2017-11-17T06:45:31.014Z,99411.39
2017-11-17T06:48:01.084Z,99406.84
2017-11-17T06:50:30.815Z,99414.50
2017-11-17T06:53:00.876Z,99411.24
2017-11-17T06:55:31.705Z,99422.45
2017-11-17T06:58:01.801Z,99424.66
2017-11-17T07:00:31.643Z,99432.08
2017-11-17T07:03:02.944Z,99429.35
2017-11-17T07:05:34.716Z,99431.73
2017-11-17T07:08:05.416Z,99435.73
2017-11-17T07:10:39.311Z,99434.52
2017-11-17T07:13:14.558Z,99427.58
2017-11-17T07:15:52.868Z,99426.87
2017-11-17T07:18:22.928Z,99429.20
2017-11-17T07:20:57.587Z,99429.57
2017-11-17T07:28:42.548Z,99433.16
2017-11-17T07:31:13.287Z,99426.66
2017-11-17T07:33:47.158Z,99436.86
2017-11-17T07:36:20.369Z,99436.70
2017-11-17T07:41:35.683Z,99443.35
2017-11-17T07:46:44.275Z,99445.61
2017-11-17T07:49:14.440Z,99444.95
2017-11-17T07:51:52.480Z,99446.53
2017-11-17T07:54:22.869Z,99441.50
2017-11-17T07:56:53.493Z,99444.41
2017-11-17T07:59:23.180Z,99439.41
2017-11-17T08:01:53.202Z,99446.73
2017-11-17T08:04:23.399Z,99434.53
2017-11-17T08:06:54.940Z,99434.66
2017-11-17T08:09:24.848Z,99440.41
2017-11-17T08:11:55.050Z,99437.87
2017-11-17T08:14:26.912Z,99439.99
2017-11-17T08:17:07.991Z,99437.83
2017-11-17T08:19:37.843Z,99436.05
2017-11-17T08:22:08.611Z,99440.78
2017-11-17T08:24:38.772Z,99432.96
2017-11-17T08:27:08.815Z,99430.54
2017-11-17T08:29:38.758Z,99437.79
2017-11-17T08:32:10.120Z,99430.95
2017-11-17T08:34:39.835Z,99426.89
2017-11-17T08:37:13.957Z,99428.27
2017-11-17T08:42:21.066Z,99432.26
2017-11-17T08:44:51.140Z,99438.82
2017-11-17T08:47:23.086Z,99435.94
2017-11-17T08:49:53.045Z,99440.28
2017-11-17T08:52:26.344Z,99445.92
2017-11-17T08:54:58.396Z,99449.12
2017-11-17T08:57:28.656Z,99448.36
2017-11-17T08:59:58.445Z,99447.84
2017-11-17T09:02:28.676Z,99450.73
2017-11-17T09:07:34.845Z,99449.71
2017-11-17T09:10:06.294Z,99446.80
2017-11-17T09:12:36.624Z,99447.45
2017-11-17T09:15:08.573Z,99444.44
2017-11-17T09:17:38.768Z,99447.81
2017-11-17T09:22:45.753Z,99442.31
2017-11-17T09:25:15.953Z,99447.35
2017-11-17T09:27:54.097Z,99438.61
2017-11-17T09:30:24.257Z,99430.96
2017-11-17T09:32:56.458Z,99440.68
2017-11-17T09:35:26.428Z,99433.15
2017-11-17T09:38:00.178Z,99430.28
2017-11-17T09:40:34.930Z,99424.00
2017-11-17T09:43:09.622Z,99424.86
2017-11-17T09:45:40.062Z,99423.58
2017-11-17T09:48:40.076Z,99416.32
2017-11-17T09:56:26.496Z,99429.33
2017-11-17T09:58:56.629Z,99431.91
2017-11-17T10:01:39.451Z,99434.94
2017-11-17T10:06:56.694Z,99428.11
2017-11-17T10:12:09.940Z,99431.70
2017-11-17T10:14:42.481Z,99427.38
2017-11-17T10:19:51.329Z,99419.73
2017-11-17T10:22:22.326Z,99419.97
2017-11-17T10:27:43.413Z,99419.45
2017-11-17T10:42:46.455Z,99393.64
2017-11-17T10:57:26.124Z,99393.27
2017-11-17T10:59:59.995Z,99389.05
2017-11-17T11:02:30.211Z,99396.52
2017-11-17T11:05:00.963Z,99394.48
2017-11-17T11:07:31.914Z,99391.25
2017-11-17T11:10:06.303Z,99394.02
2017-11-17T11:17:54.578Z,99388.86
2017-11-17T11:29:01.872Z,99374.02
2017-11-17T11:31:35.036Z,99376.13
2017-11-17T11:34:06.969Z,99373.42
2017-11-17T11:39:11.853Z,99374.04
2017-11-17T11:41:44.006Z,99372.13
2017-11-17T11:44:15.506Z,99374.62
2017-11-17T11:49:30.606Z,99382.78
2017-11-17T11:54:43.127Z,99376.75
2017-11-17T11:57:13.401Z,99375.10
2017-11-17T11:59:43.707Z,99372.22
2017-11-17T12:02:15.103Z,99381.61
2017-11-17T12:04:50.380Z,99367.69
2017-11-17T12:21:27.435Z,99370.79
2017-11-17T12:23:57.543Z,99375.05
2017-11-17T12:26:27.476Z,99370.75
2017-11-17T12:49:58.916Z,99364.69
2017-11-17T12:52:28.900Z,99366.45
2017-11-17T12:54:59.442Z,99361.80
2017-11-17T12:57:29.630Z,99360.36
2017-11-17T12:59:59.615Z,99360.63
2017-11-17T13:02:29.523Z,99367.16
2017-11-17T13:04:59.482Z,99368.30
2017-11-17T13:07:29.531Z,99368.00
2017-11-17T13:09:59.580Z,99367.92
2017-11-17T13:12:29.580Z,99368.23
2017-11-17T13:14:59.479Z,99368.86
2017-11-17T13:17:30.914Z,99365.95
2017-11-17T13:20:05.041Z,99367.30
2017-11-17T13:22:35.669Z,99361.59
2017-11-17T13:25:07.253Z,99361.02
2017-11-17T13:27:38.800Z,99368.35
2017-11-17T13:30:08.662Z,99365.27
2017-11-17T13:32:38.453Z,99365.80
2017-11-17T13:35:08.363Z,99366.09
2017-11-17T13:37:49.174Z,99362.47
2017-11-17T13:40:26.133Z,99367.08
2017-11-17T13:42:56.683Z,99367.73
2017-11-17T13:45:29.263Z,99373.69
2017-11-17T13:48:00.008Z,99372.77
2017-11-17T13:50:30.761Z,99372.77
2017-11-17T13:53:06.078Z,99375.00
2017-11-17T13:55:35.684Z,99371.97
2017-11-17T13:58:06.462Z,99375.97
2017-11-17T14:00:37.387Z,99373.81
2017-11-17T14:03:07.934Z,99376.30
2017-11-17T14:05:38.095Z,99373.78
2017-11-17T14:08:08.191Z,99376.04
2017-11-17T14:10:38.607Z,99365.19
2017-11-17T14:13:08.449Z,99368.89
2017-11-17T14:15:38.393Z,99359.08
2017-11-17T14:18:08.237Z,99365.20
2017-11-17T14:20:38.043Z,99368.78
2017-11-17T14:23:07.942Z,99359.02
2017-11-17T14:25:37.811Z,99360.45
2017-11-17T14:28:07.607Z,99362.52
2017-11-17T14:30:38.571Z,99361.06
2017-11-17T14:33:11.850Z,99362.44
2017-11-17T14:35:43.271Z,99369.15
2017-11-17T14:38:14.158Z,99361.37
2017-11-17T14:40:44.153Z,99362.74
2017-11-17T14:43:18.873Z,99362.11
2017-11-17T14:45:52.451Z,99363.61
2017-11-17T14:48:23.149Z,99361.50
2017-11-17T14:50:55.421Z,99369.88
2017-11-17T14:53:25.757Z,99365.02
2017-11-17T14:55:56.714Z,99358.88
2017-11-17T14:58:35.376Z,99364.05
2017-11-17T15:01:07.673Z,99358.27
2017-11-17T15:03:47.843Z,99351.36
2017-11-17T15:06:50.845Z,99349.25
2017-11-17T15:11:55.201Z,99356.16
2017-11-17T15:14:35.200Z,99356.20
2017-11-17T15:17:23.646Z,99355.44
2017-11-17T15:20:14.765Z,99357.49
2017-11-17T15:41:21.722Z,99353.40
2017-11-17T15:44:05.436Z,99359.41
2017-11-17T15:47:06.409Z,99360.16
2017-11-17T15:58:24.891Z,99358.23
2017-11-17T16:00:59.958Z,99357.62
2017-11-17T16:03:31.130Z,99354.09
2017-11-17T16:06:01.069Z,99362.44
2017-11-17T16:08:32.070Z,99357.52
2017-11-17T16:11:05.620Z,99358.21
2017-11-17T16:13:36.438Z,99362.88
2017-11-17T16:16:08.080Z,99361.44
2017-11-17T16:18:39.043Z,99362.88
2017-11-17T16:21:11.391Z,99357.84
2017-11-17T16:23:42.796Z,99357.91
2017-11-17T16:26:17.106Z,99357.75
2017-11-17T16:28:51.644Z,99359.64
2017-11-17T16:31:21.401Z,99358.76
2017-11-17T16:33:58.882Z,99362.20
2017-11-17T16:37:19.218Z,99363.23
2017-11-17T16:39:54.339Z,99359.79
2017-11-17T16:45:28.504Z,99363.27
2017-11-17T16:47:59.452Z,99360.39
2017-11-17T16:50:30.858Z,99363.38
2017-11-17T16:53:05.001Z,99360.71
2017-11-17T17:03:29.609Z,99361.80
2017-11-17T17:06:00.152Z,99361.51
2017-11-17T17:08:30.260Z,99362.16
2017-11-17T17:11:01.356Z,99365.70
2017-11-17T17:13:32.496Z,99360.95
2017-11-17T17:16:02.750Z,99363.07
2017-11-17T17:18:34.663Z,99356.25
2017-11-17T17:21:13.681Z,99354.04
2017-11-17T17:23:44.119Z,99363.56
2017-11-17T17:26:14.468Z,99354.98
2017-11-17T17:31:28.454Z,99354.75
2017-11-17T17:33:59.540Z,99351.53
2017-11-17T17:36:30.760Z,99349.19
2017-11-17T17:39:11.771Z,99358.32
2017-11-17T17:41:53.956Z,99358.70
2017-11-17T17:44:27.347Z,99355.86
2017-11-17T17:46:57.588Z,99347.80
2017-11-17T18:08:42.291Z,99359.33
2017-11-17T18:11:12.781Z,99361.22
2017-11-17T18:16:51.646Z,99358.02
2017-11-17T18:19:21.619Z,99353.25
2017-11-17T18:21:51.450Z,99356.42
2017-11-17T18:24:21.258Z,99348.75
2017-11-17T18:26:51.291Z,99352.27
2017-11-17T18:29:21.261Z,99355.77
2017-11-17T18:31:51.715Z,99348.06
2017-11-17T18:34:22.694Z,99341.38
2017-11-17T18:36:52.744Z,99345.37
2017-11-17T18:39:22.740Z,99346.55
2017-11-17T18:41:52.599Z,99343.12
2017-11-17T18:44:23.150Z,99344.72
2017-11-17T18:46:53.050Z,99345.61
2017-11-17T18:49:22.638Z,99347.83
2017-11-17T18:51:53.438Z,99348.90
2017-11-17T18:54:24.113Z,99346.32
2017-11-17T18:56:54.196Z,99342.47
2017-11-17T18:59:24.192Z,99343.50
2017-11-17T19:01:54.055Z,99346.17
2017-11-17T19:04:23.765Z,99344.66
2017-11-17T19:06:53.750Z,99344.39
2017-11-17T19:09:23.515Z,99339.03
2017-11-17T19:11:53.257Z,99344.36
2017-11-17T19:14:23.008Z,99347.80
2017-11-17T19:16:52.637Z,99346.20
2017-11-17T19:19:22.552Z,99341.61
2017-11-17T19:21:52.388Z,99343.44
2017-11-17T19:24:22.883Z,99342.27
2017-11-17T19:26:52.689Z,99344.04
2017-11-17T19:29:23.011Z,99338.14
2017-11-17T19:31:52.870Z,99337.73
2017-11-17T19:34:22.688Z,99332.93
2017-11-17T19:36:52.486Z,99331.19
2017-11-17T19:39:22.255Z,99330.95
2017-11-17T19:41:52.100Z,99329.79
2017-11-17T19:44:21.917Z,99330.35
2017-11-17T19:46:51.687Z,99329.08
2017-11-17T19:49:21.439Z,99328.78
2017-11-17T19:51:51.190Z,99331.53
2017-11-17T19:54:20.925Z,99330.02
2017-11-17T19:56:50.682Z,99333.94
2017-11-17T19:59:20.443Z,99335.20
2017-11-17T20:01:50.185Z,99330.41
2017-11-17T20:04:20.263Z,99334.02
2017-11-17T20:06:50.039Z,99326.85
2017-11-17T20:09:20.102Z,99329.52
2017-11-17T20:11:49.876Z,99330.56
2017-11-17T20:14:19.687Z,99328.03
2017-11-17T20:16:49.913Z,99325.38
2017-11-17T20:19:19.651Z,99328.42
2017-11-17T20:21:49.400Z,99324.42
2017-11-17T20:24:19.159Z,99321.11
2017-11-17T20:26:48.969Z,99317.28
2017-11-17T20:29:18.781Z,99321.41
2017-11-17T20:31:48.537Z,99317.28
2017-11-17T20:34:18.419Z,99318.47
2017-11-17T20:36:48.251Z,99320.33
2017-11-17T20:39:18.024Z,99315.86
2017-11-17T20:41:48.667Z,99314.20
2017-11-17T20:44:18.411Z,99312.16
2017-11-17T20:46:48.213Z,99310.59
2017-11-17T20:49:21.439Z,99312.90
2017-11-17T20:51:51.203Z,99313.34
2017-11-17T20:54:20.943Z,99314.14
2017-11-17T20:56:50.734Z,99311.54
2017-11-17T20:59:20.341Z,99308.78
2017-11-17T21:01:50.079Z,99313.38
2017-11-17T21:04:23.708Z,99306.86
2017-11-17T21:06:53.545Z,99311.89
2017-11-17T21:09:23.441Z,99309.23
2017-11-17T21:11:53.011Z,99308.41
2017-11-17T21:14:22.762Z,99308.61
2017-11-17T21:16:52.498Z,99302.66
2017-11-17T21:19:23.233Z,99300.25
2017-11-17T21:21:53.001Z,99303.87
2017-11-17T21:24:22.737Z,99306.68
2017-11-17T21:26:52.553Z,99299.90
2017-11-17T21:29:22.287Z,99301.38
2017-11-17T21:31:52.101Z,99302.33
2017-11-17T21:34:21.914Z,99295.16
2017-11-17T21:36:51.784Z,99293.38
2017-11-17T21:39:21.772Z,99295.22
2017-11-17T21:41:51.595Z,99291.58
2017-11-17T21:44:21.653Z,99294.59
2017-11-17T21:46:51.870Z,99288.23
2017-11-17T21:49:21.720Z,99292.58
2017-11-17T21:51:51.531Z,99288.67
2017-11-17T21:54:22.163Z,99282.28
2017-11-17T21:56:52.082Z,99282.01
2017-11-17T21:59:21.825Z,99287.75
2017-11-17T22:01:51.626Z,99286.59
2017-11-17T22:04:21.453Z,99286.24
2017-11-17T22:06:51.276Z,99286.89
2017-11-17T22:09:21.076Z,99283.06
2017-11-17T22:11:50.908Z,99281.06
2017-11-17T22:14:20.691Z,99276.95
2017-11-17T22:16:50.435Z,99274.25
2017-11-17T22:19:20.167Z,99278.05
2017-11-17T22:21:49.990Z,99276.17
2017-11-17T22:24:19.776Z,99275.31
2017-11-17T22:26:53.573Z,99270.94
2017-11-17T22:29:23.443Z,99268.59
2017-11-17T22:31:53.226Z,99260.75
2017-11-17T22:34:23.064Z,99263.65
2017-11-17T22:36:52.830Z,99264.45
2017-11-17T22:44:37.439Z,99253.61
2017-11-17T22:47:08.064Z,99254.73
2017-11-17T22:49:38.985Z,99257.62
2017-11-17T22:52:10.496Z,99255.94
2017-11-17T22:54:40.495Z,99249.57
2017-11-17T22:57:10.966Z,99250.64
2017-11-17T22:59:41.299Z,99248.80
2017-11-17T23:02:11.780Z,99251.52
2017-11-17T23:04:42.253Z,99245.95
2017-11-17T23:07:12.792Z,99243.09
2017-11-17T23:09:43.944Z,99244.80
2017-11-17T23:12:15.371Z,99239.36
2017-11-17T23:14:45.451Z,99238.05
2017-11-17T23:19:50.874Z,99239.25
2017-11-17T23:22:20.722Z,99237.80
2017-11-17T23:24:52.625Z,99238.66
2017-11-17T23:29:57.583Z,99230.78
2017-11-17T23:32:29.693Z,99230.63
2017-11-17T23:37:44.499Z,99224.08
2017-11-17T23:42:57.791Z,99227.02
2017-11-17T23:45:29.344Z,99224.84
2017-11-17T23:47:59.588Z,99221.56
2017-11-17T23:53:03.394Z,99224.82
2017-11-17T23:55:35.123Z,99217.56
2017-11-17T23:58:07.796Z,99225.80
